Time;durP1;ratioP1;P1;durP2;ratioP2;P2;SDS_P1;SDS_P2;PMS_P1;PMS_P2;Temp;Humidity;BMP_temperature;BMP_pressure;BME280_temperature;BME280_humidity;BME280_pressure;Samples;Min_cycle;Max_cycle;Signal;HPM_P1;HPM_P2
2022/04/08 00:02:17;;;;;;;6.60;1.35;;;;;;;;;;8304058;28;20030;-53
2022/04/08 00:06:17;;;;;;;7.07;1.33;;;;;;;;;;8305768;28;20592;-54
2022/04/08 00:10:18;;;;;;;9.45;1.80;;;;;;;;;;8306094;28;20602;-54
2022/04/08 00:14:18;;;;;;;10.38;1.38;;;;;;;;;;8305406;28;20036;-55
2022/04/08 00:18:19;;;;;;;8.50;1.50;;;;;;;;;;8304894;28;20107;-54
2022/04/08 00:22:21;;;;;;;8.48;1.92;;;;;;;;;;8306141;28;20207;-54
2022/04/08 00:26:22;;;;;;;8.18;1.42;;;;;;;;;;8304890;28;20026;-53
2022/04/08 00:30:22;;;;;;;12.05;2.10;;;;;;;;;;8302736;28;20037;-54
2022/04/08 00:34:22;;;;;;;7.15;1.95;;;;;;;;;;8303696;28;20157;-54
2022/04/08 00:38:24;;;;;;;5.32;1.40;;;;;;;;;;8307049;28;20040;-54
2022/04/08 00:42:25;;;;;;;8.38;1.65;;;;;;;;;;8304260;28;20116;-53
2022/04/08 00:46:25;;;;;;;5.85;1.35;;;;;;;;;;8304059;28;20025;-53
2022/04/08 00:50:25;;;;;;;8.65;1.70;;;;;;;;;;8304965;28;20029;-53
2022/04/08 00:54:25;;;;;;;7.50;1.40;;;;;;;;;;8303002;28;20111;-54
2022/04/08 00:58:26;;;;;;;10.52;1.50;;;;;;;;;;8305524;28;20033;-52
2022/04/08 01:02:27;;;;;;;12.07;1.92;;;;;;;;;;8302604;28;20051;-54
2022/04/08 01:06:27;;;;;;;10.02;1.83;;;;;;;;;;8304844;28;20038;-54
2022/04/08 01:10:28;;;;;;;9.98;1.80;;;;;;;;;;8304182;28;20037;-54
2022/04/08 01:14:28;;;;;;;7.30;1.50;;;;;;;;;;8303901;28;20036;-54
2022/04/08 01:18:28;;;;;;;9.50;1.85;;;;;;;;;;8300805;28;20041;-54
2022/04/08 01:22:29;;;;;;;4.45;1.20;;;;;;;;;;8303923;28;20064;-54
2022/04/08 01:26:29;;;;;;;7.43;1.40;;;;;;;;;;8301011;28;20063;-53
2022/04/08 01:30:29;;;;;;;6.90;1.20;;;;;;;;;;8300499;28;20652;-54
2022/04/08 01:34:29;;;;;;;9.95;1.63;;;;;;;;;;8301229;28;20296;-54
2022/04/08 01:38:30;;;;;;;7.07;1.70;;;;;;;;;;8303649;28;20030;-53
2022/04/08 01:42:30;;;;;;;7.45;1.60;;;;;;;;;;8301922;28;20041;-54
2022/04/08 01:46:30;;;;;;;6.32;1.58;;;;;;;;;;8302014;28;20049;-53
2022/04/08 01:50:30;;;;;;;7.63;1.58;;;;;;;;;;8302223;28;20157;-54
2022/04/08 01:54:30;;;;;;;9.52;1.60;;;;;;;;;;8303539;28;20080;-54
2022/04/08 01:58:31;;;;;;;7.97;1.95;;;;;;;;;;8301568;28;20032;-54
2022/04/08 02:02:31;;;;;;;8.00;1.73;;;;;;;;;;8301889;28;20045;-54
2022/04/08 02:06:32;;;;;;;9.98;1.90;;;;;;;;;;8301961;28;20283;-54
2022/04/08 02:10:32;;;;;;;13.00;2.00;;;;;;;;;;8304338;28;20798;-54
2022/04/08 02:14:32;;;;;;;8.45;1.60;;;;;;;;;;8302429;28;20020;-52
2022/04/08 02:18:32;;;;;;;11.13;2.40;;;;;;;;;;8303619;28;20043;-53
2022/04/08 02:22:35;;;;;;;10.23;1.70;;;;;;;;;;8302228;28;20428;-54
2022/04/08 02:26:35;;;;;;;4.40;1.42;;;;;;;;;;8302709;28;20032;-54
2022/04/08 02:30:36;;;;;;;9.85;1.55;;;;;;;;;;8301486;28;20041;-54
2022/04/08 02:34:37;;;;;;;10.35;2.17;;;;;;;;;;8303360;28;20862;-54
2022/04/08 02:38:38;;;;;;;10.73;2.05;;;;;;;;;;8302885;28;20056;-54
2022/04/08 02:42:38;;;;;;;7.30;1.60;;;;;;;;;;8302116;28;20037;-54
2022/04/08 02:46:38;;;;;;;9.13;2.15;;;;;;;;;;8301491;28;20156;-54
2022/04/08 02:50:39;;;;;;;8.00;1.85;;;;;;;;;;8300205;28;20021;-54
2022/04/08 02:54:39;;;;;;;11.63;1.73;;;;;;;;;;8302958;28;20040;-54
2022/04/08 02:58:39;;;;;;;9.80;2.10;;;;;;;;;;8302187;28;20033;-54
2022/04/08 03:02:39;;;;;;;7.53;1.77;;;;;;;;;;8301582;28;20134;-54
2022/04/08 03:06:40;;;;;;;10.52;1.90;;;;;;;;;;8301030;28;20029;-53
2022/04/08 03:10:40;;;;;;;8.63;1.90;;;;;;;;;;8302584;28;20029;-54
2022/04/08 03:14:40;;;;;;;10.55;1.70;;;;;;;;;;8301569;28;20033;-53
2022/04/08 03:18:40;;;;;;;10.15;1.88;;;;;;;;;;8302387;28;20051;-53
2022/04/08 03:22:40;;;;;;;5.70;1.35;;;;;;;;;;8306433;28;20041;-54
2022/04/08 03:26:41;;;;;;;10.82;2.13;;;;;;;;;;8308232;28;20033;-54
2022/04/08 03:30:41;;;;;;;12.63;1.70;;;;;;;;;;8307729;28;20042;-53
2022/04/08 03:34:41;;;;;;;7.23;1.80;;;;;;;;;;8306537;28;20062;-52
2022/04/08 03:38:41;;;;;;;8.35;1.95;;;;;;;;;;8305701;28;20263;-54
2022/04/08 03:42:41;;;;;;;8.20;1.60;;;;;;;;;;8305453;28;20030;-54
2022/04/08 03:46:43;;;;;;;13.73;1.98;;;;;;;;;;8306398;28;20061;-53
2022/04/08 03:50:44;;;;;;;13.18;2.22;;;;;;;;;;8307769;28;20023;-54
2022/04/08 03:54:44;;;;;;;9.32;2.08;;;;;;;;;;8306951;28;20955;-54
2022/04/08 03:58:44;;;;;;;9.87;1.90;;;;;;;;;;8308747;28;20083;-54
2022/04/08 04:02:44;;;;;;;9.98;1.73;;;;;;;;;;8304693;28;20278;-53
2022/04/08 04:06:44;;;;;;;5.00;1.60;;;;;;;;;;8305995;28;20029;-54
2022/04/08 04:10:45;;;;;;;9.53;1.93;;;;;;;;;;8306176;28;20021;-54
2022/04/08 04:14:45;;;;;;;9.52;2.03;;;;;;;;;;8305696;28;20329;-53
2022/04/08 04:18:46;;;;;;;5.45;1.60;;;;;;;;;;8303407;28;20033;-54
2022/04/08 04:22:47;;;;;;;11.07;1.95;;;;;;;;;;8305250;28;20087;-53
2022/04/08 04:26:47;;;;;;;9.55;1.83;;;;;;;;;;8304789;28;20033;-50
2022/04/08 04:30:47;;;;;;;11.27;2.05;;;;;;;;;;8304207;28;20040;-54
2022/04/08 04:34:48;;;;;;;7.55;1.60;;;;;;;;;;8304162;28;20025;-54
2022/04/08 04:38:48;;;;;;;7.82;1.88;;;;;;;;;;8305354;28;20018;-53
2022/04/08 04:42:48;;;;;;;10.65;2.17;;;;;;;;;;8305306;28;20021;-54
2022/04/08 04:46:49;;;;;;;9.23;2.00;;;;;;;;;;8304795;28;20030;-54
2022/04/08 04:50:49;;;;;;;11.57;2.20;;;;;;;;;;8301903;28;20646;-51
2022/04/08 04:54:50;;;;;;;5.80;1.60;;;;;;;;;;8304639;28;20301;-53
2022/04/08 04:58:50;;;;;;;9.07;2.00;;;;;;;;;;8304507;28;20033;-54
2022/04/08 05:02:50;;;;;;;14.27;1.90;;;;;;;;;;8301150;28;20386;-54
2022/04/08 05:06:51;;;;;;;7.57;1.63;;;;;;;;;;8303914;28;20279;-54
2022/04/08 05:10:51;;;;;;;15.18;2.92;;;;;;;;;;8305095;28;20033;-54
2022/04/08 05:14:51;;;;;;;7.63;1.90;;;;;;;;;;8302821;28;20766;-53
2022/04/08 05:18:51;;;;;;;9.38;2.28;;;;;;;;;;8302139;28;20828;-54
2022/04/08 05:22:52;;;;;;;11.52;2.20;;;;;;;;;;8304250;28;20033;-54
2022/04/08 05:26:52;;;;;;;8.02;2.00;;;;;;;;;;8304670;28;20034;-54
2022/04/08 05:30:53;;;;;;;15.65;2.00;;;;;;;;;;8300296;28;20040;-60
2022/04/08 05:34:53;;;;;;;7.35;2.03;;;;;;;;;;8298389;28;20048;-54
2022/04/08 05:38:53;;;;;;;8.40;2.10;;;;;;;;;;8305495;28;20036;-54
2022/04/08 05:42:54;;;;;;;10.57;2.03;;;;;;;;;;8303890;28;20037;-54
2022/04/08 05:46:54;;;;;;;9.73;1.83;;;;;;;;;;8303667;28;20071;-52
2022/04/08 05:50:54;;;;;;;8.40;1.95;;;;;;;;;;8302821;28;20028;-53
2022/04/08 05:54:54;;;;;;;11.60;2.10;;;;;;;;;;8303885;28;21122;-53
2022/04/08 05:58:54;;;;;;;9.40;2.30;;;;;;;;;;8302506;28;20029;-54
2022/04/08 06:02:56;;;;;;;10.02;2.08;;;;;;;;;;8301581;28;20033;-54
2022/04/08 06:06:57;;;;;;;11.00;2.35;;;;;;;;;;8303196;28;20029;-53
2022/04/08 06:10:57;;;;;;;10.50;2.10;;;;;;;;;;8302707;28;20032;-53
2022/04/08 06:14:58;;;;;;;11.77;2.20;;;;;;;;;;8302828;28;20126;-54
2022/04/08 06:18:58;;;;;;;12.50;2.20;;;;;;;;;;8302694;28;20935;-54
2022/04/08 06:22:58;;;;;;;11.77;2.25;;;;;;;;;;8302626;28;20020;-53
2022/04/08 06:26:58;;;;;;;17.20;2.10;;;;;;;;;;8303732;28;20044;-54
2022/04/08 06:30:59;;;;;;;7.68;1.80;;;;;;;;;;8301481;28;20426;-53
2022/04/08 06:34:59;;;;;;;17.50;2.77;;;;;;;;;;8303042;28;20060;-54
2022/04/08 06:38:59;;;;;;;6.28;1.85;;;;;;;;;;8301263;28;20263;-53
2022/04/08 06:43:00;;;;;;;9.82;1.92;;;;;;;;;;8300377;28;20029;-52
2022/04/08 06:47:01;;;;;;;9.95;2.15;;;;;;;;;;8301349;28;20033;-54
2022/04/08 06:51:04;;;;;;;16.05;2.67;;;;;;;;;;8289998;28;20409;-54
2022/04/08 06:55:04;;;;;;;7.45;2.05;;;;;;;;;;8303275;28;20079;-54
2022/04/08 06:59:05;;;;;;;7.40;2.28;;;;;;;;;;8306071;28;20046;-54
2022/04/08 07:03:05;;;;;;;11.73;2.30;;;;;;;;;;8301867;28;20402;-53
2022/04/08 07:07:05;;;;;;;7.15;2.00;;;;;;;;;;8305703;28;20028;-54
2022/04/08 07:11:05;;;;;;;11.93;2.60;;;;;;;;;;8305505;28;20032;-53
2022/04/08 07:15:06;;;;;;;11.90;3.15;;;;;;;;;;8306099;28;20032;-54
2022/04/08 07:19:06;;;;;;;8.85;2.70;;;;;;;;;;8307404;28;20140;-54
2022/04/08 07:23:07;;;;;;;10.32;2.90;;;;;;;;;;8308912;28;20032;-54
2022/04/08 07:27:07;;;;;;;10.90;2.80;;;;;;;;;;8307886;28;20418;-55
2022/04/08 07:31:08;;;;;;;12.77;3.25;;;;;;;;;;8305134;28;20045;-54
2022/04/08 07:35:09;;;;;;;14.52;3.75;;;;;;;;;;8307810;28;20076;-55
2022/04/08 07:39:09;;;;;;;13.80;2.88;;;;;;;;;;8306673;28;20053;-53
2022/04/08 07:43:09;;;;;;;13.30;2.95;;;;;;;;;;8305589;28;20083;-53
2022/04/08 07:47:10;;;;;;;8.45;2.72;;;;;;;;;;8306584;28;20099;-53
2022/04/08 07:51:10;;;;;;;7.00;2.58;;;;;;;;;;8306742;28;20078;-53
2022/04/08 07:55:10;;;;;;;8.68;2.35;;;;;;;;;;8307815;28;20041;-55
2022/04/08 07:59:10;;;;;;;7.00;2.50;;;;;;;;;;8307607;28;20036;-53
2022/04/08 08:03:15;;;;;;;13.57;2.45;;;;;;;;;;8305516;28;20076;-53
2022/04/08 08:07:15;;;;;;;8.57;2.15;;;;;;;;;;8306955;28;20141;-57
2022/04/08 08:11:17;;;;;;;8.97;2.40;;;;;;;;;;8306834;28;20064;-56
2022/04/08 08:15:18;;;;;;;9.77;2.40;;;;;;;;;;8304489;28;20387;-53
2022/04/08 08:19:18;;;;;;;9.35;3.00;;;;;;;;;;8306507;28;20045;-55
2022/04/08 08:23:19;;;;;;;11.68;2.38;;;;;;;;;;8305820;28;20095;-55
2022/04/08 08:27:19;;;;;;;10.30;2.35;;;;;;;;;;8305550;28;20025;-54
2022/04/08 08:31:19;;;;;;;9.57;2.53;;;;;;;;;;8304434;28;20040;-55
2022/04/08 08:35:19;;;;;;;11.83;2.60;;;;;;;;;;8306804;28;20038;-54
2022/04/08 08:39:20;;;;;;;9.55;2.15;;;;;;;;;;8305848;28;20276;-53
2022/04/08 08:43:20;;;;;;;6.32;1.75;;;;;;;;;;8305220;28;20931;-55
2022/04/08 08:47:21;;;;;;;6.07;1.98;;;;;;;;;;8303221;28;20036;-53
2022/04/08 08:51:21;;;;;;;10.02;2.30;;;;;;;;;;8315324;23;20189;-71
2022/04/08 08:55:22;;;;;;;8.80;2.40;;;;;;;;;;8212288;28;20038;-70
2022/04/08 08:59:23;;;;;;;8.23;2.08;;;;;;;;;;8214432;28;20022;-70
2022/04/08 09:03:29;;;;;;;7.07;2.05;;;;;;;;;;8214604;28;20042;-70
2022/04/08 09:07:29;;;;;;;3.90;1.50;;;;;;;;;;8214045;28;20032;-70
2022/04/08 09:11:30;;;;;;;3.10;1.20;;;;;;;;;;8213153;28;20034;-70
2022/04/08 09:15:31;;;;;;;6.80;1.55;;;;;;;;;;8212303;28;20349;-70
2022/04/08 09:19:34;;;;;;;6.93;1.58;;;;;;;;;;8213576;28;20039;-70
2022/04/08 09:23:34;;;;;;;3.90;1.83;;;;;;;;;;8213369;28;20141;-70
2022/04/08 09:27:34;;;;;;;3.92;1.60;;;;;;;;;;8209049;28;20030;-70
2022/04/08 09:31:36;;;;;;;6.43;1.83;;;;;;;;;;8210090;28;20035;-71
2022/04/08 09:35:40;;;;;;;4.60;1.42;;;;;;;;;;8212172;28;20034;-70
2022/04/08 09:39:40;;;;;;;;;;;;;;;;;;8213700;28;20077;-71
2022/04/08 09:43:40;;;;;;;6.18;1.58;;;;;;;;;;8211119;28;19914;-71
2022/04/08 09:47:41;;;;;;;3.00;1.27;;;;;;;;;;8210965;28;20119;-71
2022/04/08 09:51:41;;;;;;;2.28;1.00;;;;;;;;;;8200990;28;20066;-71
2022/04/08 09:55:42;;;;;;;2.00;0.90;;;;;;;;;;8198366;28;20673;-71
2022/04/08 09:59:44;;;;;;;2.50;1.10;;;;;;;;;;8198683;28;20034;-71
2022/04/08 10:03:44;;;;;;;4.05;1.10;;;;;;;;;;8198461;28;20038;-71
2022/04/08 10:07:45;;;;;;;2.65;1.42;;;;;;;;;;8176395;28;20050;-71
2022/04/08 10:11:50;;;;;;;1.90;1.10;;;;;;;;;;8169259;28;20046;-71
2022/04/08 10:16:01;;;;;;;5.45;1.60;;;;;;;;;;8193537;28;20489;-71
2022/04/08 10:20:21;;;;;;;4.38;1.20;;;;;;;;;;8168143;28;20137;-71
2022/04/08 10:24:23;;;;;;;3.28;1.50;;;;;;;;;;8196697;28;20027;-71
2022/04/08 10:28:33;;;;;;;2.50;1.00;;;;;;;;;;8195495;28;20130;-71
2022/04/08 10:32:40;;;;;;;2.90;1.05;;;;;;;;;;8196145;28;20031;-70
2022/04/08 10:36:43;;;;;;;2.20;1.10;;;;;;;;;;8201435;28;20309;-70
2022/04/08 10:40:52;;;;;;;1.55;0.95;;;;;;;;;;8201410;28;20030;-70
2022/04/08 10:44:52;;;;;;;2.05;0.85;;;;;;;;;;8203772;28;20117;-70
2022/04/08 10:48:59;;;;;;;1.23;0.77;;;;;;;;;;8198278;28;20039;-71
2022/04/08 10:53:04;;;;;;;2.35;1.00;;;;;;;;;;8197445;28;20961;-70
2022/04/08 10:57:04;;;;;;;1.17;1.02;;;;;;;;;;8198820;28;20031;-70
2022/04/08 11:01:14;;;;;;;1.08;0.80;;;;;;;;;;8198136;28;20042;-70
2022/04/08 11:05:16;;;;;;;1.92;0.90;;;;;;;;;;8197472;28;20035;-70
2022/04/08 11:09:16;;;;;;;1.95;0.73;;;;;;;;;;8195376;28;20034;-71
2022/04/08 11:13:16;;;;;;;2.20;1.00;;;;;;;;;;8195176;28;20034;-70
2022/04/08 11:17:19;;;;;;;2.67;0.80;;;;;;;;;;8209596;28;20030;-70
2022/04/08 11:21:21;;;;;;;1.20;0.80;;;;;;;;;;8196679;28;20033;-70
2022/04/08 11:25:22;;;;;;;1.42;0.75;;;;;;;;;;8195892;28;20031;-71
2022/04/08 11:29:23;;;;;;;0.57;0.57;;;;;;;;;;8198868;28;20030;-71
2022/04/08 11:33:24;;;;;;;0.73;0.60;;;;;;;;;;8196102;28;20166;-70
2022/04/08 11:37:25;;;;;;;0.47;0.47;;;;;;;;;;8201110;28;20033;-71
2022/04/08 11:41:28;;;;;;;0.40;0.40;;;;;;;;;;8203633;28;20053;-70
2022/04/08 11:45:29;;;;;;;0.40;0.40;;;;;;;;;;8205714;28;20034;-70
2022/04/08 11:49:29;;;;;;;0.95;0.50;;;;;;;;;;8195171;28;20050;-70
2022/04/08 11:53:29;;;;;;;0.80;0.47;;;;;;;;;;8201687;28;20031;-70
2022/04/08 11:57:31;;;;;;;3.70;1.60;;;;;;;;;;8202062;28;20082;-71
2022/04/08 12:01:37;;;;;;;1.20;0.90;;;;;;;;;;8204244;28;20047;-71
2022/04/08 12:05:44;;;;;;;0.95;0.85;;;;;;;;;;8202080;28;20037;-71
2022/04/08 12:09:44;;;;;;;0.70;0.70;;;;;;;;;;8213592;28;20020;-71
2022/04/08 12:13:44;;;;;;;0.50;0.50;;;;;;;;;;8213055;28;20024;-70
2022/04/08 12:17:44;;;;;;;0.50;0.50;;;;;;;;;;8200698;28;20086;-70
2022/04/08 12:21:45;;;;;;;0.40;0.40;;;;;;;;;;8198768;28;20852;-70
2022/04/08 12:25:45;;;;;;;0.88;0.57;;;;;;;;;;8202968;28;20688;-70
2022/04/08 12:29:56;;;;;;;1.55;0.35;;;;;;;;;;8199923;28;20022;-70
2022/04/08 12:33:56;;;;;;;1.05;0.60;;;;;;;;;;8197961;28;20165;-70
2022/04/08 12:37:59;;;;;;;0.52;0.52;;;;;;;;;;8201335;28;20050;-70
2022/04/08 12:42:00;;;;;;;0.50;0.50;;;;;;;;;;8198535;28;20023;-70
2022/04/08 12:46:00;;;;;;;0.30;0.30;;;;;;;;;;8196856;28;20046;-70
2022/04/08 12:50:01;;;;;;;0.30;0.30;;;;;;;;;;8212234;28;20035;-70
2022/04/08 12:54:01;;;;;;;1.42;0.90;;;;;;;;;;8193806;28;20035;-71
2022/04/08 12:58:01;;;;;;;0.50;0.50;;;;;;;;;;8196665;28;20033;-71
2022/04/08 13:02:01;;;;;;;0.90;0.80;;;;;;;;;;8193640;28;20248;-71
2022/04/08 13:06:02;;;;;;;1.05;0.70;;;;;;;;;;8196160;28;20282;-71
2022/04/08 13:10:02;;;;;;;0.80;0.70;;;;;;;;;;8198956;28;20109;-71
2022/04/08 13:14:03;;;;;;;0.60;0.60;;;;;;;;;;8196664;28;20459;-71
2022/04/08 13:18:03;;;;;;;0.60;0.60;;;;;;;;;;8197241;28;20041;-70
2022/04/08 13:22:04;;;;;;;0.80;0.80;;;;;;;;;;8194701;28;20270;-71
2022/04/08 13:26:04;;;;;;;2.17;1.70;;;;;;;;;;8194989;28;20035;-71
2022/04/08 13:30:04;;;;;;;0.80;0.80;;;;;;;;;;8193409;28;21056;-71
2022/04/08 13:34:04;;;;;;;0.85;0.85;;;;;;;;;;8197106;28;20034;-70
2022/04/08 13:38:06;;;;;;;0.60;0.60;;;;;;;;;;8190604;28;20687;-70
2022/04/08 13:42:07;;;;;;;0.60;0.60;;;;;;;;;;8193336;28;20022;-70
2022/04/08 13:46:07;;;;;;;1.48;0.52;;;;;;;;;;8192422;28;20053;-70
2022/04/08 13:50:07;;;;;;;1.02;0.70;;;;;;;;;;8196445;28;20033;-70
2022/04/08 13:54:08;;;;;;;0.50;0.50;;;;;;;;;;8204814;28;20031;-70
2022/04/08 13:58:08;;;;;;;0.33;0.33;;;;;;;;;;8196914;28;20139;-70
2022/04/08 14:02:11;;;;;;;6.53;0.50;;;;;;;;;;8196361;28;20279;-70
2022/04/08 14:06:13;;;;;;;2.92;0.40;;;;;;;;;;8197910;28;20109;-71
2022/04/08 14:10:14;;;;;;;2.85;0.40;;;;;;;;;;8197549;28;20031;-71
2022/04/08 14:14:14;;;;;;;0.45;0.43;;;;;;;;;;8196856;28;20089;-71
2022/04/08 14:18:14;;;;;;;13.07;0.60;;;;;;;;;;8192398;28;20445;-71
2022/04/08 14:22:14;;;;;;;41.13;1.30;;;;;;;;;;8197227;28;20023;-71
2022/04/08 14:26:15;;;;;;;13.40;0.60;;;;;;;;;;8193597;28;20027;-70
2022/04/08 14:30:15;;;;;;;5.13;0.50;;;;;;;;;;8192702;28;20065;-71
2022/04/08 14:34:15;;;;;;;18.25;0.82;;;;;;;;;;8193003;28;20027;-71
2022/04/08 14:38:15;;;;;;;9.93;0.70;;;;;;;;;;8192777;28;20251;-71
2022/04/08 14:42:16;;;;;;;4.95;0.50;;;;;;;;;;8192924;28;20031;-71
2022/04/08 14:46:16;;;;;;;0.30;0.30;;;;;;;;;;8196520;28;20035;-71
2022/04/08 14:50:16;;;;;;;0.40;0.40;;;;;;;;;;8196869;28;20499;-71
2022/04/08 14:54:18;;;;;;;0.57;0.57;;;;;;;;;;8193134;28;20026;-71
2022/04/08 14:58:18;;;;;;;0.50;0.50;;;;;;;;;;8192756;28;20345;-70
2022/04/08 15:02:18;;;;;;;0.60;0.60;;;;;;;;;;8192066;28;20031;-70
2022/04/08 15:06:18;;;;;;;0.70;0.70;;;;;;;;;;8199631;28;20426;-70
2022/04/08 15:10:19;;;;;;;0.40;0.40;;;;;;;;;;8197178;28;20031;-70
2022/04/08 15:14:19;;;;;;;0.60;0.60;;;;;;;;;;8194862;28;20129;-70
2022/04/08 15:18:19;;;;;;;0.50;0.50;;;;;;;;;;8198640;28;20779;-71
2022/04/08 15:22:20;;;;;;;3.08;0.60;;;;;;;;;;8203140;28;20041;-70
2022/04/08 15:26:20;;;;;;;0.47;0.47;;;;;;;;;;8200859;28;20045;-70
2022/04/08 15:30:20;;;;;;;0.70;0.70;;;;;;;;;;8200523;28;20033;-70
2022/04/08 15:34:20;;;;;;;0.45;0.45;;;;;;;;;;8198860;28;20293;-70
2022/04/08 15:38:21;;;;;;;0.40;0.40;;;;;;;;;;8196789;28;20034;-69
2022/04/08 15:42:21;;;;;;;3.40;2.13;;;;;;;;;;8194402;28;20034;-67
2022/04/08 15:46:21;;;;;;;2.17;1.57;;;;;;;;;;8197013;28;20863;-70
2022/04/08 15:50:21;;;;;;;0.80;0.80;;;;;;;;;;8195498;28;20270;-70
2022/04/08 15:54:21;;;;;;;0.73;0.73;;;;;;;;;;8197216;28;20495;-70
2022/04/08 15:58:22;;;;;;;0.60;0.60;;;;;;;;;;8194729;28;20023;-70
2022/04/08 16:02:22;;;;;;;1.13;0.65;;;;;;;;;;8195216;28;20035;-70
2022/04/08 16:06:23;;;;;;;0.60;0.60;;;;;;;;;;8195636;28;20035;-70
2022/04/08 16:10:23;;;;;;;0.50;0.50;;;;;;;;;;8197388;28;20038;-70
2022/04/08 16:14:23;;;;;;;0.67;0.67;;;;;;;;;;8194462;28;20072;-70
2022/04/08 16:18:24;;;;;;;0.77;0.77;;;;;;;;;;8194600;28;20297;-69
2022/04/08 16:22:24;;;;;;;1.58;1.48;;;;;;;;;;8195230;28;20030;-70
2022/04/08 16:26:24;;;;;;;0.90;0.90;;;;;;;;;;8194387;28;20043;-70
2022/04/08 16:30:24;;;;;;;1.10;1.00;;;;;;;;;;8199156;28;20270;-69
2022/04/08 16:34:25;;;;;;;3.42;1.20;;;;;;;;;;8198307;28;20059;-69
2022/04/08 16:38:25;;;;;;;1.02;0.90;;;;;;;;;;8197656;28;20026;-69
2022/04/08 16:42:25;;;;;;;0.70;0.70;;;;;;;;;;8190744;28;21017;-70
2022/04/08 16:46:25;;;;;;;1.02;0.90;;;;;;;;;;8191880;28;22455;-70
2022/04/08 16:50:26;;;;;;;0.70;0.70;;;;;;;;;;8193353;28;20151;-70
2022/04/08 16:54:26;;;;;;;0.55;0.55;;;;;;;;;;8193850;28;20037;-70
2022/04/08 16:58:26;;;;;;;0.68;0.68;;;;;;;;;;8194947;28;20072;-70
2022/04/08 17:02:26;;;;;;;0.70;0.70;;;;;;;;;;8192776;28;20877;-70
2022/04/08 17:06:27;;;;;;;2.22;1.95;;;;;;;;;;8194873;28;20045;-70
2022/04/08 17:10:28;;;;;;;0.77;0.77;;;;;;;;;;8192429;28;20914;-70
2022/04/08 17:14:28;;;;;;;1.20;1.00;;;;;;;;;;8190705;28;20030;-70
2022/04/08 17:18:28;;;;;;;0.90;0.90;;;;;;;;;;8189472;28;20035;-70
2022/04/08 17:22:28;;;;;;;0.60;0.60;;;;;;;;;;8188540;28;20023;-70
2022/04/08 17:26:29;;;;;;;0.50;0.50;;;;;;;;;;8190685;28;20664;-70
2022/04/08 17:30:29;;;;;;;0.67;0.67;;;;;;;;;;8191333;28;20026;-70
2022/04/08 17:34:29;;;;;;;0.60;0.60;;;;;;;;;;8191541;28;20293;-70
2022/04/08 17:38:30;;;;;;;2.72;0.70;;;;;;;;;;8207113;28;20296;-70
2022/04/08 17:42:35;;;;;;;0.68;0.68;;;;;;;;;;8191882;28;20031;-71
2022/04/08 17:46:35;;;;;;;1.33;0.60;;;;;;;;;;8192153;28;20035;-70
2022/04/08 17:50:35;;;;;;;6.60;0.80;;;;;;;;;;8193105;28;20030;-70
2022/04/08 17:54:35;;;;;;;3.92;0.60;;;;;;;;;;8191804;28;20164;-70
2022/04/08 17:58:36;;;;;;;0.52;0.50;;;;;;;;;;8194807;28;20029;-70
2022/04/08 18:02:36;;;;;;;0.50;0.50;;;;;;;;;;8189929;28;20649;-71
2022/04/08 18:06:36;;;;;;;0.50;0.50;;;;;;;;;;8192174;28;21447;-70
2022/04/08 18:10:37;;;;;;;0.60;0.60;;;;;;;;;;8189007;28;20065;-71
2022/04/08 18:14:37;;;;;;;0.63;0.63;;;;;;;;;;8189617;28;20043;-70
2022/04/08 18:18:37;;;;;;;0.55;0.55;;;;;;;;;;8189163;28;20674;-71
2022/04/08 18:22:37;;;;;;;0.63;0.63;;;;;;;;;;8190880;28;20423;-70
2022/04/08 18:26:38;;;;;;;0.68;0.68;;;;;;;;;;8191558;28;20187;-70
2022/04/08 18:30:38;;;;;;;0.60;0.60;;;;;;;;;;8190972;28;20531;-70
2022/04/08 18:34:41;;;;;;;0.97;0.97;;;;;;;;;;8189585;28;20115;-70
2022/04/08 18:38:41;;;;;;;0.80;0.80;;;;;;;;;;8190486;28;20293;-74
2022/04/08 18:42:42;;;;;;;0.70;0.70;;;;;;;;;;8191901;28;20077;-71
2022/04/08 18:46:42;;;;;;;0.80;0.80;;;;;;;;;;8193692;28;20070;-71
2022/04/08 18:50:43;;;;;;;0.80;0.75;;;;;;;;;;8195451;28;20023;-73
2022/04/08 18:54:43;;;;;;;6.72;0.90;;;;;;;;;;8200024;28;20115;-73
2022/04/08 18:58:43;;;;;;;1.50;1.02;;;;;;;;;;8201452;28;20035;-74
2022/04/08 19:02:46;;;;;;;0.80;0.80;;;;;;;;;;8199565;28;20510;-73
2022/04/08 19:06:47;;;;;;;0.80;0.80;;;;;;;;;;8199665;28;20038;-73
2022/04/08 19:10:48;;;;;;;0.98;0.98;;;;;;;;;;8192152;28;21257;-74
2022/04/08 19:14:48;;;;;;;40.70;2.35;;;;;;;;;;8197058;28;20059;-74
2022/04/08 19:18:48;;;;;;;8.30;1.42;;;;;;;;;;8197509;28;20065;-74
2022/04/08 19:22:49;;;;;;;11.80;1.40;;;;;;;;;;8198808;28;20026;-74
2022/04/08 19:26:49;;;;;;;14.27;1.73;;;;;;;;;;8198542;28;20026;-74
2022/04/08 19:30:49;;;;;;;40.95;2.10;;;;;;;;;;8187052;28;20281;-75
2022/04/08 19:34:50;;;;;;;13.05;1.27;;;;;;;;;;8197185;28;20069;-75
2022/04/08 19:38:50;;;;;;;0.95;0.80;;;;;;;;;;8198828;28;20096;-74
2022/04/08 19:42:50;;;;;;;1.10;1.10;;;;;;;;;;8196899;28;20034;-75
2022/04/08 19:46:50;;;;;;;0.90;0.90;;;;;;;;;;8198704;28;20035;-75
2022/04/08 19:50:51;;;;;;;0.80;0.80;;;;;;;;;;8197618;28;20499;-76
2022/04/08 19:54:51;;;;;;;0.90;0.90;;;;;;;;;;8197297;28;20109;-74
2022/04/08 19:58:51;;;;;;;1.20;1.20;;;;;;;;;;8195765;28;20033;-73
2022/04/08 20:02:51;;;;;;;1.00;1.00;;;;;;;;;;8200656;28;20085;-73
2022/04/08 20:06:52;;;;;;;0.80;0.80;;;;;;;;;;8196464;28;20031;-73
2022/04/08 20:10:52;;;;;;;1.10;1.00;;;;;;;;;;8197633;28;20031;-73
2022/04/08 20:14:52;;;;;;;1.20;1.10;;;;;;;;;;8199624;28;20037;-73
2022/04/08 20:18:53;;;;;;;1.00;1.00;;;;;;;;;;8201957;28;20775;-74
2022/04/08 20:22:54;;;;;;;1.08;1.08;;;;;;;;;;8206288;28;20027;-74
2022/04/08 20:26:54;;;;;;;1.00;1.00;;;;;;;;;;8206269;28;20101;-74
2022/04/08 20:30:54;;;;;;;1.00;1.00;;;;;;;;;;8199774;28;20042;-74
2022/04/08 20:34:54;;;;;;;1.08;1.08;;;;;;;;;;8201436;28;20037;-75
2022/04/08 20:38:54;;;;;;;0.93;0.93;;;;;;;;;;8198058;28;20575;-75
2022/04/08 20:42:55;;;;;;;0.80;0.80;;;;;;;;;;8214983;28;20027;-76
2022/04/08 20:46:55;;;;;;;0.70;0.70;;;;;;;;;;8197806;28;20497;-76
2022/04/08 20:50:55;;;;;;;0.50;0.50;;;;;;;;;;8199423;28;20031;-76
2022/04/08 20:54:55;;;;;;;0.50;0.50;;;;;;;;;;8198963;28;20030;-77
2022/04/08 20:58:55;;;;;;;0.50;0.40;;;;;;;;;;8201325;28;20026;-78
2022/04/08 21:02:56;;;;;;;0.40;0.40;;;;;;;;;;8201521;28;20926;-78
2022/04/08 21:06:56;;;;;;;0.30;0.30;;;;;;;;;;8198187;28;20031;-77
2022/04/08 21:10:56;;;;;;;0.38;0.38;;;;;;;;;;8196963;28;20381;-75
2022/04/08 21:14:56;;;;;;;0.30;0.30;;;;;;;;;;8200743;28;20034;-74
2022/04/08 21:18:57;;;;;;;0.30;0.30;;;;;;;;;;8200637;28;20038;-74
2022/04/08 21:22:57;;;;;;;0.30;0.30;;;;;;;;;;8198242;28;20027;-74
2022/04/08 21:26:58;;;;;;;0.30;0.30;;;;;;;;;;8198346;28;20023;-74
2022/04/08 21:30:58;;;;;;;0.43;0.43;;;;;;;;;;8197418;28;20141;-73
2022/04/08 21:34:58;;;;;;;0.45;0.40;;;;;;;;;;8195615;28;20058;-75
2022/04/08 21:38:58;;;;;;;0.30;0.30;;;;;;;;;;8198075;28;20023;-74
2022/04/08 21:42:59;;;;;;;0.30;0.30;;;;;;;;;;8196075;28;20136;-74
2022/04/08 21:46:59;;;;;;;0.28;0.28;;;;;;;;;;8195792;28;20045;-75
2022/04/08 21:50:59;;;;;;;0.25;0.25;;;;;;;;;;8195727;28;20667;-75
2022/04/08 21:59:18;;;;;;;0.20;0.20;;;;;;;;;;8202104;28;20129;-76
2022/04/08 22:03:19;;;;;;;0.22;0.22;;;;;;;;;;8198539;28;20042;-75
2022/04/08 22:07:19;;;;;;;0.30;0.30;;;;;;;;;;8212538;28;20057;-76
2022/04/08 22:11:20;;;;;;;0.50;0.50;;;;;;;;;;8215490;28;20026;-77
2022/04/08 22:15:22;;;;;;;0.90;0.68;;;;;;;;;;8198410;28;20038;-79
2022/04/08 22:19:22;;;;;;;0.60;0.60;;;;;;;;;;8217685;28;20027;-80
2022/04/08 22:23:22;;;;;;;0.75;0.75;;;;;;;;;;8212073;28;20026;-78
2022/04/08 22:27:23;;;;;;;2.72;1.00;;;;;;;;;;8201285;28;20204;-77
2022/04/08 22:31:23;;;;;;;1.23;1.10;;;;;;;;;;8211152;28;20035;-76
2022/04/08 22:35:23;;;;;;;1.75;1.20;;;;;;;;;;8198746;28;20080;-76
2022/04/08 22:39:24;;;;;;;1.00;1.00;;;;;;;;;;8198158;28;20492;-76
2022/04/08 22:43:24;;;;;;;1.33;1.10;;;;;;;;;;8199690;28;20034;-76
2022/04/08 22:47:25;;;;;;;1.30;1.20;;;;;;;;;;8198696;28;20067;-76
2022/04/08 22:51:25;;;;;;;1.20;1.10;;;;;;;;;;8196656;28;20062;-76
2022/04/08 22:55:26;;;;;;;1.30;1.10;;;;;;;;;;8202001;28;20031;-76
2022/04/08 22:59:26;;;;;;;2.67;1.10;;;;;;;;;;8197330;28;20524;-76
2022/04/08 23:03:26;;;;;;;1.20;1.20;;;;;;;;;;8197509;28;20617;-76
2022/04/08 23:07:27;;;;;;;2.80;1.45;;;;;;;;;;8195120;28;20042;-75
2022/04/08 23:11:27;;;;;;;1.65;1.55;;;;;;;;;;8198414;28;20043;-76
2022/04/08 23:15:27;;;;;;;3.75;2.55;;;;;;;;;;8197508;28;20052;-76
2022/04/08 23:19:27;;;;;;;3.58;2.55;;;;;;;;;;8195517;28;20031;-75
2022/04/08 23:23:28;;;;;;;5.03;3.13;;;;;;;;;;8209825;28;20026;-75
2022/04/08 23:27:28;;;;;;;4.60;2.67;;;;;;;;;;8196860;28;20033;-74
2022/04/08 23:31:28;;;;;;;7.65;3.20;;;;;;;;;;8195984;28;20481;-74
2022/04/08 23:35:28;;;;;;;6.75;3.28;;;;;;;;;;8197417;28;20128;-75
2022/04/08 23:39:28;;;;;;;4.03;2.50;;;;;;;;;;8216308;28;20027;-74
2022/04/08 23:43:29;;;;;;;3.65;2.25;;;;;;;;;;8199291;28;20368;-74
2022/04/08 23:47:29;;;;;;;4.53;2.65;;;;;;;;;;8198603;28;20109;-75
2022/04/08 23:51:29;;;;;;;3.00;2.70;;;;;;;;;;8215442;28;20321;-75
2022/04/08 23:55:31;;;;;;;2.40;2.20;;;;;;;;;;8202556;28;20023;-74
2022/04/08 23:59:31;;;;;;;4.03;2.35;;;;;;;;;;8199292;28;20042;-74
